sensor_id;sensor_type;location;lat;lon;timestamp;P1;durP1;ratioP1;P2;durP2;ratioP2
71947;SDS011;63257;55.082;38.772;2023-05-16T00:00:29;14.88;;;3.97;;
71947;SDS011;63257;55.082;38.772;2023-05-16T00:07:25;13.73;;;4.50;;
71947;SDS011;63257;55.082;38.772;2023-05-16T00:09:51;14.07;;;4.28;;
71947;SDS011;63257;55.082;38.772;2023-05-16T00:12:16;13.02;;;4.10;;
71947;SDS011;63257;55.082;38.772;2023-05-16T00:14:44;11.40;;;4.25;;
71947;SDS011;63257;55.082;38.772;2023-05-16T00:17:09;16.23;;;4.40;;
71947;SDS011;63257;55.082;38.772;2023-05-16T00:24:00;14.63;;;4.93;;
71947;SDS011;63257;55.082;38.772;2023-05-16T00:26:26;16.67;;;5.55;;
71947;SDS011;63257;55.082;38.772;2023-05-16T00:28:52;20.15;;;5.53;;
71947;SDS011;63257;55.082;38.772;2023-05-16T00:31:17;25.60;;;5.60;;
71947;SDS011;63257;55.082;38.772;2023-05-16T00:33:43;16.83;;;5.35;;
71947;SDS011;63257;55.082;38.772;2023-05-16T00:36:09;21.53;;;6.53;;
71947;SDS011;63257;55.082;38.772;2023-05-16T00:38:35;24.25;;;7.32;;
71947;SDS011;63257;55.082;38.772;2023-05-16T00:41:01;20.45;;;6.00;;
71947;SDS011;63257;55.082;38.772;2023-05-16T00:43:28;16.60;;;7.03;;
71947;SDS011;63257;55.082;38.772;2023-05-16T00:45:55;13.70;;;5.45;;
71947;SDS011;63257;55.082;38.772;2023-05-16T00:48:22;20.45;;;6.22;;
71947;SDS011;63257;55.082;38.772;2023-05-16T00:50:50;16.85;;;5.72;;
71947;SDS011;63257;55.082;38.772;2023-05-16T00:53:17;15.20;;;5.53;;
71947;SDS011;63257;55.082;38.772;2023-05-16T00:55:44;18.40;;;5.85;;
71947;SDS011;63257;55.082;38.772;2023-05-16T00:58:11;14.82;;;5.68;;
71947;SDS011;63257;55.082;38.772;2023-05-16T01:00:37;20.05;;;5.95;;
71947;SDS011;63257;55.082;38.772;2023-05-16T01:03:04;16.55;;;6.00;;
71947;SDS011;63257;55.082;38.772;2023-05-16T01:05:30;18.67;;;5.68;;
71947;SDS011;63257;55.082;38.772;2023-05-16T01:07:56;14.18;;;5.50;;
71947;SDS011;63257;55.082;38.772;2023-05-16T01:10:22;16.13;;;6.00;;
71947;SDS011;63257;55.082;38.772;2023-05-16T01:12:58;18.55;;;5.60;;
71947;SDS011;63257;55.082;38.772;2023-05-16T01:15:35;15.02;;;5.30;;
71947;SDS011;63257;55.082;38.772;2023-05-16T01:20:57;12.43;;;4.97;;
71947;SDS011;63257;55.082;38.772;2023-05-16T01:26:27;14.57;;;4.90;;
71947;SDS011;63257;55.082;38.772;2023-05-16T01:28:54;12.52;;;4.80;;
71947;SDS011;63257;55.082;38.772;2023-05-16T01:31:21;12.18;;;5.30;;
71947;SDS011;63257;55.082;38.772;2023-05-16T01:33:47;11.88;;;5.63;;
71947;SDS011;63257;55.082;38.772;2023-05-16T01:36:35;14.03;;;4.73;;
71947;SDS011;63257;55.082;38.772;2023-05-16T01:42:04;12.52;;;4.82;;
71947;SDS011;63257;55.082;38.772;2023-05-16T01:44:39;15.07;;;4.90;;
71947;SDS011;63257;55.082;38.772;2023-05-16T01:47:13;19.55;;;4.78;;
71947;SDS011;63257;55.082;38.772;2023-05-16T01:49:54;14.55;;;5.20;;
71947;SDS011;63257;55.082;38.772;2023-05-16T01:52:31;14.00;;;4.43;;
71947;SDS011;63257;55.082;38.772;2023-05-16T01:55:03;14.00;;;4.63;;
71947;SDS011;63257;55.082;38.772;2023-05-16T01:57:34;13.45;;;4.22;;
71947;SDS011;63257;55.082;38.772;2023-05-16T02:00:01;14.70;;;4.60;;
71947;SDS011;63257;55.082;38.772;2023-05-16T02:02:30;13.50;;;4.33;;
71947;SDS011;63257;55.082;38.772;2023-05-16T02:04:56;16.55;;;4.00;;
71947;SDS011;63257;55.082;38.772;2023-05-16T02:07:22;17.93;;;4.23;;
71947;SDS011;63257;55.082;38.772;2023-05-16T02:09:48;11.63;;;4.20;;
71947;SDS011;63257;55.082;38.772;2023-05-16T02:12:14;17.60;;;4.50;;
71947;SDS011;63257;55.082;38.772;2023-05-16T02:14:40;14.43;;;4.40;;
71947;SDS011;63257;55.082;38.772;2023-05-16T02:17:06;13.60;;;4.47;;
71947;SDS011;63257;55.082;38.772;2023-05-16T02:19:32;16.48;;;4.65;;
71947;SDS011;63257;55.082;38.772;2023-05-16T02:21:59;14.57;;;4.40;;
71947;SDS011;63257;55.082;38.772;2023-05-16T02:24:25;12.70;;;4.45;;
71947;SDS011;63257;55.082;38.772;2023-05-16T02:26:53;13.48;;;4.97;;
71947;SDS011;63257;55.082;38.772;2023-05-16T02:29:19;14.77;;;5.43;;
71947;SDS011;63257;55.082;38.772;2023-05-16T02:31:45;14.48;;;4.75;;
71947;SDS011;63257;55.082;38.772;2023-05-16T02:34:11;15.75;;;5.53;;
71947;SDS011;63257;55.082;38.772;2023-05-16T02:36:37;17.33;;;4.82;;
71947;SDS011;63257;55.082;38.772;2023-05-16T02:39:03;14.43;;;5.00;;
71947;SDS011;63257;55.082;38.772;2023-05-16T02:41:29;13.52;;;5.90;;
71947;SDS011;63257;55.082;38.772;2023-05-16T02:43:56;18.58;;;6.13;;
71947;SDS011;63257;55.082;38.772;2023-05-16T02:48:49;18.30;;;6.05;;
71947;SDS011;63257;55.082;38.772;2023-05-16T02:51:16;13.65;;;5.70;;
71947;SDS011;63257;55.082;38.772;2023-05-16T02:53:43;11.93;;;5.63;;
71947;SDS011;63257;55.082;38.772;2023-05-16T02:56:09;19.63;;;6.45;;
71947;SDS011;63257;55.082;38.772;2023-05-16T02:58:35;16.77;;;5.90;;
71947;SDS011;63257;55.082;38.772;2023-05-16T03:01:01;14.47;;;6.13;;
71947;SDS011;63257;55.082;38.772;2023-05-16T03:03:26;14.43;;;5.90;;
71947;SDS011;63257;55.082;38.772;2023-05-16T03:05:53;17.83;;;5.47;;
71947;SDS011;63257;55.082;38.772;2023-05-16T03:08:19;9.50;;;4.97;;
71947;SDS011;63257;55.082;38.772;2023-05-16T03:10:45;10.65;;;4.68;;
71947;SDS011;63257;55.082;38.772;2023-05-16T03:13:12;11.93;;;4.60;;
71947;SDS011;63257;55.082;38.772;2023-05-16T03:15:38;14.67;;;4.93;;
71947;SDS011;63257;55.082;38.772;2023-05-16T03:18:04;11.68;;;4.82;;
71947;SDS011;63257;55.082;38.772;2023-05-16T03:20:30;10.63;;;4.70;;
71947;SDS011;63257;55.082;38.772;2023-05-16T03:22:56;11.77;;;4.60;;
71947;SDS011;63257;55.082;38.772;2023-05-16T03:25:22;10.75;;;4.25;;
71947;SDS011;63257;55.082;38.772;2023-05-16T03:27:47;14.63;;;4.80;;
71947;SDS011;63257;55.082;38.772;2023-05-16T03:30:16;13.05;;;4.95;;
71947;SDS011;63257;55.082;38.772;2023-05-16T03:32:44;11.68;;;4.93;;
71947;SDS011;63257;55.082;38.772;2023-05-16T03:35:10;9.52;;;4.63;;
71947;SDS011;63257;55.082;38.772;2023-05-16T03:37:37;11.43;;;5.00;;
71947;SDS011;63257;55.082;38.772;2023-05-16T03:40:03;13.88;;;4.82;;
71947;SDS011;63257;55.082;38.772;2023-05-16T03:42:30;10.05;;;4.20;;
71947;SDS011;63257;55.082;38.772;2023-05-16T03:44:56;8.30;;;4.53;;
71947;SDS011;63257;55.082;38.772;2023-05-16T03:47:22;8.03;;;4.40;;
71947;SDS011;63257;55.082;38.772;2023-05-16T03:49:51;10.43;;;4.68;;
71947;SDS011;63257;55.082;38.772;2023-05-16T03:52:17;10.38;;;4.40;;
71947;SDS011;63257;55.082;38.772;2023-05-16T03:54:43;14.80;;;5.47;;
71947;SDS011;63257;55.082;38.772;2023-05-16T03:57:09;9.07;;;4.43;;
71947;SDS011;63257;55.082;38.772;2023-05-16T03:59:34;13.43;;;4.95;;
71947;SDS011;63257;55.082;38.772;2023-05-16T04:02:00;10.30;;;4.73;;
71947;SDS011;63257;55.082;38.772;2023-05-16T04:04:26;15.45;;;7.00;;
71947;SDS011;63257;55.082;38.772;2023-05-16T04:06:52;12.18;;;5.00;;
71947;SDS011;63257;55.082;38.772;2023-05-16T04:09:18;13.13;;;4.70;;
71947;SDS011;63257;55.082;38.772;2023-05-16T04:11:44;10.13;;;4.72;;
71947;SDS011;63257;55.082;38.772;2023-05-16T04:14:10;11.90;;;4.40;;
71947;SDS011;63257;55.082;38.772;2023-05-16T04:16:36;12.43;;;4.32;;
71947;SDS011;63257;55.082;38.772;2023-05-16T04:19:02;12.23;;;4.90;;
71947;SDS011;63257;55.082;38.772;2023-05-16T04:21:30;9.27;;;4.82;;
71947;SDS011;63257;55.082;38.772;2023-05-16T04:23:56;12.67;;;5.43;;
71947;SDS011;63257;55.082;38.772;2023-05-16T04:26:22;11.98;;;5.07;;
71947;SDS011;63257;55.082;38.772;2023-05-16T04:28:49;12.70;;;6.30;;
71947;SDS011;63257;55.082;38.772;2023-05-16T04:31:21;12.33;;;5.33;;
71947;SDS011;63257;55.082;38.772;2023-05-16T04:33:47;11.80;;;5.47;;
71947;SDS011;63257;55.082;38.772;2023-05-16T04:36:13;15.50;;;5.90;;
71947;SDS011;63257;55.082;38.772;2023-05-16T04:38:39;16.98;;;5.72;;
71947;SDS011;63257;55.082;38.772;2023-05-16T04:41:06;8.15;;;4.63;;
71947;SDS011;63257;55.082;38.772;2023-05-16T04:43:32;11.10;;;4.47;;
71947;SDS011;63257;55.082;38.772;2023-05-16T04:45:57;13.85;;;4.47;;
71947;SDS011;63257;55.082;38.772;2023-05-16T04:48:26;8.10;;;3.97;;
71947;SDS011;63257;55.082;38.772;2023-05-16T04:50:52;12.63;;;4.00;;
71947;SDS011;63257;55.082;38.772;2023-05-16T04:53:17;46.63;;;23.07;;
71947;SDS011;63257;55.082;38.772;2023-05-16T04:55:43;12.90;;;4.25;;
71947;SDS011;63257;55.082;38.772;2023-05-16T04:58:10;16.95;;;6.47;;
71947;SDS011;63257;55.082;38.772;2023-05-16T05:00:35;12.48;;;4.15;;
71947;SDS011;63257;55.082;38.772;2023-05-16T05:03:02;13.03;;;4.23;;
71947;SDS011;63257;55.082;38.772;2023-05-16T05:05:28;10.73;;;3.55;;
71947;SDS011;63257;55.082;38.772;2023-05-16T05:07:56;10.65;;;3.30;;
71947;SDS011;63257;55.082;38.772;2023-05-16T05:10:23;11.10;;;2.90;;
71947;SDS011;63257;55.082;38.772;2023-05-16T05:12:49;10.20;;;3.50;;
71947;SDS011;63257;55.082;38.772;2023-05-16T05:15:15;9.45;;;2.97;;
71947;SDS011;63257;55.082;38.772;2023-05-16T05:17:41;11.63;;;5.10;;
71947;SDS011;63257;55.082;38.772;2023-05-16T05:20:07;8.60;;;2.70;;
71947;SDS011;63257;55.082;38.772;2023-05-16T05:22:34;9.10;;;2.83;;
71947;SDS011;63257;55.082;38.772;2023-05-16T05:25:00;6.97;;;2.80;;
71947;SDS011;63257;55.082;38.772;2023-05-16T05:27:27;10.75;;;2.85;;
71947;SDS011;63257;55.082;38.772;2023-05-16T05:29:53;8.65;;;3.20;;
71947;SDS011;63257;55.082;38.772;2023-05-16T05:32:19;7.82;;;3.05;;
71947;SDS011;63257;55.082;38.772;2023-05-16T05:34:45;7.93;;;2.70;;
71947;SDS011;63257;55.082;38.772;2023-05-16T05:37:11;8.63;;;3.20;;
71947;SDS011;63257;55.082;38.772;2023-05-16T05:39:36;7.38;;;3.00;;
71947;SDS011;63257;55.082;38.772;2023-05-16T05:42:02;9.00;;;2.80;;
71947;SDS011;63257;55.082;38.772;2023-05-16T05:44:29;8.18;;;2.67;;
71947;SDS011;63257;55.082;38.772;2023-05-16T05:46:55;8.05;;;2.75;;
71947;SDS011;63257;55.082;38.772;2023-05-16T05:49:24;6.50;;;2.00;;
71947;SDS011;63257;55.082;38.772;2023-05-16T05:51:51;6.50;;;2.40;;
71947;SDS011;63257;55.082;38.772;2023-05-16T05:54:18;9.52;;;2.47;;
71947;SDS011;63257;55.082;38.772;2023-05-16T05:56:44;5.75;;;1.85;;
71947;SDS011;63257;55.082;38.772;2023-05-16T05:59:13;7.18;;;2.10;;
71947;SDS011;63257;55.082;38.772;2023-05-16T06:01:39;19.97;;;3.27;;
71947;SDS011;63257;55.082;38.772;2023-05-16T06:04:06;9.18;;;2.33;;
71947;SDS011;63257;55.082;38.772;2023-05-16T06:06:32;5.88;;;1.90;;
71947;SDS011;63257;55.082;38.772;2023-05-16T06:08:58;6.13;;;2.03;;
71947;SDS011;63257;55.082;38.772;2023-05-16T06:11:23;5.15;;;1.70;;
71947;SDS011;63257;55.082;38.772;2023-05-16T06:13:50;8.20;;;2.70;;
71947;SDS011;63257;55.082;38.772;2023-05-16T06:16:16;7.50;;;2.33;;
71947;SDS011;63257;55.082;38.772;2023-05-16T06:18:43;9.20;;;3.00;;
71947;SDS011;63257;55.082;38.772;2023-05-16T06:21:09;7.70;;;3.10;;
71947;SDS011;63257;55.082;38.772;2023-05-16T06:23:35;4.32;;;2.50;;
71947;SDS011;63257;55.082;38.772;2023-05-16T06:26:02;6.37;;;2.43;;
71947;SDS011;63257;55.082;38.772;2023-05-16T06:28:28;7.25;;;2.88;;
71947;SDS011;63257;55.082;38.772;2023-05-16T06:30:54;6.28;;;2.25;;
71947;SDS011;63257;55.082;38.772;2023-05-16T06:33:20;5.07;;;2.27;;
71947;SDS011;63257;55.082;38.772;2023-05-16T06:35:46;9.70;;;2.50;;
71947;SDS011;63257;55.082;38.772;2023-05-16T06:38:13;11.55;;;3.00;;
71947;SDS011;63257;55.082;38.772;2023-05-16T06:40:39;5.85;;;2.17;;
71947;SDS011;63257;55.082;38.772;2023-05-16T06:43:06;5.30;;;2.17;;
71947;SDS011;63257;55.082;38.772;2023-05-16T06:45:32;11.13;;;2.67;;
71947;SDS011;63257;55.082;38.772;2023-05-16T06:48:00;7.65;;;1.90;;
71947;SDS011;63257;55.082;38.772;2023-05-16T06:50:26;4.88;;;2.42;;
71947;SDS011;63257;55.082;38.772;2023-05-16T06:52:51;9.23;;;3.20;;
71947;SDS011;63257;55.082;38.772;2023-05-16T06:55:17;4.32;;;2.00;;
71947;SDS011;63257;55.082;38.772;2023-05-16T06:57:43;5.93;;;2.30;;
71947;SDS011;63257;55.082;38.772;2023-05-16T07:00:10;9.93;;;2.80;;
71947;SDS011;63257;55.082;38.772;2023-05-16T07:02:36;7.30;;;2.13;;
71947;SDS011;63257;55.082;38.772;2023-05-16T07:05:02;17.15;;;3.47;;
71947;SDS011;63257;55.082;38.772;2023-05-16T07:07:30;8.25;;;2.75;;
71947;SDS011;63257;55.082;38.772;2023-05-16T07:09:56;6.80;;;2.23;;
71947;SDS011;63257;55.082;38.772;2023-05-16T07:12:22;4.93;;;2.00;;
71947;SDS011;63257;55.082;38.772;2023-05-16T07:14:47;8.67;;;2.60;;
71947;SDS011;63257;55.082;38.772;2023-05-16T07:17:13;9.63;;;2.60;;
71947;SDS011;63257;55.082;38.772;2023-05-16T07:19:39;5.72;;;2.10;;
71947;SDS011;63257;55.082;38.772;2023-05-16T07:22:05;5.30;;;1.80;;
71947;SDS011;63257;55.082;38.772;2023-05-16T07:24:31;7.88;;;2.20;;
71947;SDS011;63257;55.082;38.772;2023-05-16T07:26:57;5.73;;;2.40;;
71947;SDS011;63257;55.082;38.772;2023-05-16T07:29:23;7.85;;;2.75;;
71947;SDS011;63257;55.082;38.772;2023-05-16T07:31:49;7.30;;;2.30;;
71947;SDS011;63257;55.082;38.772;2023-05-16T07:34:15;5.97;;;2.60;;
71947;SDS011;63257;55.082;38.772;2023-05-16T07:36:41;7.45;;;3.15;;
71947;SDS011;63257;55.082;38.772;2023-05-16T07:39:07;5.03;;;2.30;;
71947;SDS011;63257;55.082;38.772;2023-05-16T07:41:33;10.90;;;2.23;;
71947;SDS011;63257;55.082;38.772;2023-05-16T07:43:58;5.72;;;2.35;;
71947;SDS011;63257;55.082;38.772;2023-05-16T07:46:24;6.78;;;2.42;;
71947;SDS011;63257;55.082;38.772;2023-05-16T07:48:50;6.93;;;2.20;;
71947;SDS011;63257;55.082;38.772;2023-05-16T07:51:16;7.40;;;2.60;;
71947;SDS011;63257;55.082;38.772;2023-05-16T07:53:42;4.32;;;2.50;;
71947;SDS011;63257;55.082;38.772;2023-05-16T07:56:08;5.05;;;2.00;;
71947;SDS011;63257;55.082;38.772;2023-05-16T08:02:53;5.53;;;2.30;;
71947;SDS011;63257;55.082;38.772;2023-05-16T08:05:19;5.80;;;2.35;;
71947;SDS011;63257;55.082;38.772;2023-05-16T08:07:45;5.15;;;2.10;;
71947;SDS011;63257;55.082;38.772;2023-05-16T08:10:10;6.20;;;2.33;;
71947;SDS011;63257;55.082;38.772;2023-05-16T08:12:36;5.40;;;2.25;;
71947;SDS011;63257;55.082;38.772;2023-05-16T08:15:02;4.22;;;2.20;;
71947;SDS011;63257;55.082;38.772;2023-05-16T08:17:30;6.07;;;2.00;;
71947;SDS011;63257;55.082;38.772;2023-05-16T08:19:56;6.63;;;2.33;;
71947;SDS011;63257;55.082;38.772;2023-05-16T08:22:24;4.93;;;2.28;;
71947;SDS011;63257;55.082;38.772;2023-05-16T08:24:50;7.30;;;2.30;;
71947;SDS011;63257;55.082;38.772;2023-05-16T08:27:16;9.63;;;2.58;;
71947;SDS011;63257;55.082;38.772;2023-05-16T08:29:42;11.75;;;3.42;;
71947;SDS011;63257;55.082;38.772;2023-05-16T08:32:08;6.70;;;2.07;;
71947;SDS011;63257;55.082;38.772;2023-05-16T08:34:35;5.10;;;1.90;;
71947;SDS011;63257;55.082;38.772;2023-05-16T08:37:01;6.22;;;2.05;;
71947;SDS011;63257;55.082;38.772;2023-05-16T08:39:27;10.30;;;2.53;;
71947;SDS011;63257;55.082;38.772;2023-05-16T08:41:54;5.13;;;2.20;;
71947;SDS011;63257;55.082;38.772;2023-05-16T08:44:21;4.03;;;2.10;;
71947;SDS011;63257;55.082;38.772;2023-05-16T08:46:49;8.48;;;2.50;;
71947;SDS011;63257;55.082;38.772;2023-05-16T08:49:17;6.63;;;2.05;;
71947;SDS011;63257;55.082;38.772;2023-05-16T08:51:45;8.07;;;2.47;;
71947;SDS011;63257;55.082;38.772;2023-05-16T08:54:12;3.92;;;2.03;;
71947;SDS011;63257;55.082;38.772;2023-05-16T08:56:43;6.78;;;2.70;;
71947;SDS011;63257;55.082;38.772;2023-05-16T08:59:10;4.53;;;2.10;;
71947;SDS011;63257;55.082;38.772;2023-05-16T09:01:36;11.73;;;2.10;;
71947;SDS011;63257;55.082;38.772;2023-05-16T09:08:14;6.47;;;2.45;;
71947;SDS011;63257;55.082;38.772;2023-05-16T09:17:51;5.17;;;2.73;;
71947;SDS011;63257;55.082;38.772;2023-05-16T09:20:18;8.90;;;2.65;;
71947;SDS011;63257;55.082;38.772;2023-05-16T09:22:55;5.93;;;2.10;;
71947;SDS011;63257;55.082;38.772;2023-05-16T09:25:22;5.25;;;2.40;;
71947;SDS011;63257;55.082;38.772;2023-05-16T09:27:56;6.33;;;2.80;;
71947;SDS011;63257;55.082;38.772;2023-05-16T09:30:30;5.28;;;2.30;;
71947;SDS011;63257;55.082;38.772;2023-05-16T09:32:58;6.57;;;2.55;;
71947;SDS011;63257;55.082;38.772;2023-05-16T09:35:24;7.70;;;2.45;;
71947;SDS011;63257;55.082;38.772;2023-05-16T09:37:51;5.03;;;2.28;;
71947;SDS011;63257;55.082;38.772;2023-05-16T09:40:20;8.20;;;2.30;;
71947;SDS011;63257;55.082;38.772;2023-05-16T09:42:47;5.15;;;2.50;;
71947;SDS011;63257;55.082;38.772;2023-05-16T09:45:29;7.97;;;2.80;;
71947;SDS011;63257;55.082;38.772;2023-05-16T09:48:09;5.43;;;2.47;;
71947;SDS011;63257;55.082;38.772;2023-05-16T09:54:57;4.67;;;2.90;;
71947;SDS011;63257;55.082;38.772;2023-05-16T09:57:23;9.02;;;2.90;;
71947;SDS011;63257;55.082;38.772;2023-05-16T09:59:51;7.20;;;2.45;;
71947;SDS011;63257;55.082;38.772;2023-05-16T10:02:17;4.82;;;2.40;;
71947;SDS011;63257;55.082;38.772;2023-05-16T10:04:46;3.77;;;2.20;;
71947;SDS011;63257;55.082;38.772;2023-05-16T10:07:12;4.38;;;2.38;;
71947;SDS011;63257;55.082;38.772;2023-05-16T10:09:39;5.50;;;2.50;;
71947;SDS011;63257;55.082;38.772;2023-05-16T10:12:07;4.80;;;2.80;;
71947;SDS011;63257;55.082;38.772;2023-05-16T10:14:36;6.10;;;2.30;;
71947;SDS011;63257;55.082;38.772;2023-05-16T10:17:03;4.40;;;2.10;;
71947;SDS011;63257;55.082;38.772;2023-05-16T10:19:33;5.10;;;2.55;;
71947;SDS011;63257;55.082;38.772;2023-05-16T10:22:03;9.20;;;3.92;;
71947;SDS011;63257;55.082;38.772;2023-05-16T10:24:35;5.63;;;2.50;;
71947;SDS011;63257;55.082;38.772;2023-05-16T10:27:08;4.03;;;2.30;;
71947;SDS011;63257;55.082;38.772;2023-05-16T10:29:34;5.60;;;2.65;;
71947;SDS011;63257;55.082;38.772;2023-05-16T10:32:02;5.00;;;2.80;;
71947;SDS011;63257;55.082;38.772;2023-05-16T10:34:29;6.85;;;2.90;;
71947;SDS011;63257;55.082;38.772;2023-05-16T10:36:58;5.65;;;2.60;;
71947;SDS011;63257;55.082;38.772;2023-05-16T10:39:24;4.20;;;2.33;;
71947;SDS011;63257;55.082;38.772;2023-05-16T10:41:53;4.38;;;2.65;;
71947;SDS011;63257;55.082;38.772;2023-05-16T10:44:20;4.10;;;2.78;;
71947;SDS011;63257;55.082;38.772;2023-05-16T10:46:46;4.22;;;2.50;;
71947;SDS011;63257;55.082;38.772;2023-05-16T10:49:22;7.13;;;3.33;;
71947;SDS011;63257;55.082;38.772;2023-05-16T10:54:33;6.80;;;3.63;;
71947;SDS011;63257;55.082;38.772;2023-05-16T10:57:04;8.82;;;2.60;;
71947;SDS011;63257;55.082;38.772;2023-05-16T10:59:43;7.22;;;3.55;;
71947;SDS011;63257;55.082;38.772;2023-05-16T11:02:29;4.70;;;2.50;;
71947;SDS011;63257;55.082;38.772;2023-05-16T11:05:05;6.00;;;3.00;;
71947;SDS011;63257;55.082;38.772;2023-05-16T11:07:32;5.90;;;2.47;;
71947;SDS011;63257;55.082;38.772;2023-05-16T11:10:14;12.18;;;2.72;;
71947;SDS011;63257;55.082;38.772;2023-05-16T11:12:42;6.80;;;2.25;;
71947;SDS011;63257;55.082;38.772;2023-05-16T11:15:27;6.75;;;2.40;;
71947;SDS011;63257;55.082;38.772;2023-05-16T11:18:04;6.23;;;3.40;;
71947;SDS011;63257;55.082;38.772;2023-05-16T11:20:36;6.63;;;3.80;;
71947;SDS011;63257;55.082;38.772;2023-05-16T11:25:47;5.13;;;3.70;;
71947;SDS011;63257;55.082;38.772;2023-05-16T11:28:16;5.97;;;2.90;;
71947;SDS011;63257;55.082;38.772;2023-05-16T11:30:48;7.10;;;3.00;;
71947;SDS011;63257;55.082;38.772;2023-05-16T11:33:17;5.30;;;3.30;;
71947;SDS011;63257;55.082;38.772;2023-05-16T11:35:44;4.22;;;3.35;;
71947;SDS011;63257;55.082;38.772;2023-05-16T11:38:31;7.32;;;3.20;;
71947;SDS011;63257;55.082;38.772;2023-05-16T11:41:07;7.45;;;3.78;;
71947;SDS011;63257;55.082;38.772;2023-05-16T11:43:37;8.90;;;4.20;;
71947;SDS011;63257;55.082;38.772;2023-05-16T11:46:03;5.38;;;2.47;;
71947;SDS011;63257;55.082;38.772;2023-05-16T11:48:29;9.55;;;4.43;;
71947;SDS011;63257;55.082;38.772;2023-05-16T11:50:55;4.93;;;3.47;;
71947;SDS011;63257;55.082;38.772;2023-05-16T11:53:21;6.00;;;2.77;;
71947;SDS011;63257;55.082;38.772;2023-05-16T11:55:47;8.27;;;4.15;;
71947;SDS011;63257;55.082;38.772;2023-05-16T11:58:18;6.88;;;3.08;;
71947;SDS011;63257;55.082;38.772;2023-05-16T12:00:48;9.52;;;3.88;;
71947;SDS011;63257;55.082;38.772;2023-05-16T12:03:16;8.48;;;3.85;;
71947;SDS011;63257;55.082;38.772;2023-05-16T12:05:49;8.03;;;4.07;;
71947;SDS011;63257;55.082;38.772;2023-05-16T12:08:18;6.25;;;3.80;;
71947;SDS011;63257;55.082;38.772;2023-05-16T12:10:47;6.88;;;3.67;;
71947;SDS011;63257;55.082;38.772;2023-05-16T12:13:14;8.52;;;3.50;;
71947;SDS011;63257;55.082;38.772;2023-05-16T12:15:41;5.72;;;2.47;;
71947;SDS011;63257;55.082;38.772;2023-05-16T12:18:07;9.20;;;2.67;;
71947;SDS011;63257;55.082;38.772;2023-05-16T12:20:34;9.65;;;2.90;;
71947;SDS011;63257;55.082;38.772;2023-05-16T12:23:00;4.32;;;2.80;;
71947;SDS011;63257;55.082;38.772;2023-05-16T12:25:30;5.75;;;2.80;;
71947;SDS011;63257;55.082;38.772;2023-05-16T12:27:57;6.80;;;3.22;;
71947;SDS011;63257;55.082;38.772;2023-05-16T12:30:25;8.40;;;3.90;;
71947;SDS011;63257;55.082;38.772;2023-05-16T12:32:54;7.25;;;3.90;;
71947;SDS011;63257;55.082;38.772;2023-05-16T12:35:21;8.20;;;3.13;;
71947;SDS011;63257;55.082;38.772;2023-05-16T12:37:48;11.90;;;3.90;;
71947;SDS011;63257;55.082;38.772;2023-05-16T12:40:16;7.38;;;3.15;;
71947;SDS011;63257;55.082;38.772;2023-05-16T12:42:42;8.27;;;3.00;;
71947;SDS011;63257;55.082;38.772;2023-05-16T12:45:15;5.75;;;3.80;;
71947;SDS011;63257;55.082;38.772;2023-05-16T12:51:54;9.65;;;4.00;;
71947;SDS011;63257;55.082;38.772;2023-05-16T12:54:21;5.72;;;4.32;;
71947;SDS011;63257;55.082;38.772;2023-05-16T12:56:48;6.57;;;4.17;;
71947;SDS011;63257;55.082;38.772;2023-05-16T12:59:13;7.43;;;4.10;;
71947;SDS011;63257;55.082;38.772;2023-05-16T13:01:39;8.32;;;4.63;;
71947;SDS011;63257;55.082;38.772;2023-05-16T13:04:06;5.63;;;3.70;;
71947;SDS011;63257;55.082;38.772;2023-05-16T13:06:33;6.60;;;3.80;;
71947;SDS011;63257;55.082;38.772;2023-05-16T13:08:59;7.65;;;4.30;;
71947;SDS011;63257;55.082;38.772;2023-05-16T13:11:25;8.40;;;4.38;;
71947;SDS011;63257;55.082;38.772;2023-05-16T13:13:51;9.43;;;5.07;;
71947;SDS011;63257;55.082;38.772;2023-05-16T13:16:17;9.85;;;5.20;;
71947;SDS011;63257;55.082;38.772;2023-05-16T13:18:45;8.15;;;4.03;;
71947;SDS011;63257;55.082;38.772;2023-05-16T13:21:10;9.88;;;4.78;;
71947;SDS011;63257;55.082;38.772;2023-05-16T13:23:36;8.27;;;4.53;;
71947;SDS011;63257;55.082;38.772;2023-05-16T13:26:02;7.68;;;4.30;;
71947;SDS011;63257;55.082;38.772;2023-05-16T13:28:29;10.88;;;4.93;;
71947;SDS011;63257;55.082;38.772;2023-05-16T13:30:56;10.20;;;4.43;;
71947;SDS011;63257;55.082;38.772;2023-05-16T13:33:22;12.00;;;4.65;;
71947;SDS011;63257;55.082;38.772;2023-05-16T13:35:49;7.57;;;4.50;;
71947;SDS011;63257;55.082;38.772;2023-05-16T13:38:16;5.38;;;4.25;;
71947;SDS011;63257;55.082;38.772;2023-05-16T13:40:43;8.38;;;4.60;;
71947;SDS011;63257;55.082;38.772;2023-05-16T13:43:09;6.93;;;4.27;;
71947;SDS011;63257;55.082;38.772;2023-05-16T13:45:38;9.95;;;5.78;;
71947;SDS011;63257;55.082;38.772;2023-05-16T13:48:04;11.73;;;5.28;;
71947;SDS011;63257;55.082;38.772;2023-05-16T13:50:31;6.72;;;4.25;;
71947;SDS011;63257;55.082;38.772;2023-05-16T13:52:57;6.53;;;4.63;;
71947;SDS011;63257;55.082;38.772;2023-05-16T13:55:23;7.90;;;4.35;;
71947;SDS011;63257;55.082;38.772;2023-05-16T13:58:02;7.53;;;4.23;;
71947;SDS011;63257;55.082;38.772;2023-05-16T14:00:28;6.43;;;4.30;;
71947;SDS011;63257;55.082;38.772;2023-05-16T14:07:00;6.57;;;3.97;;
71947;SDS011;63257;55.082;38.772;2023-05-16T14:09:26;14.20;;;4.30;;
71947;SDS011;63257;55.082;38.772;2023-05-16T14:11:51;6.78;;;4.50;;
71947;SDS011;63257;55.082;38.772;2023-05-16T14:14:17;9.17;;;4.67;;
71947;SDS011;63257;55.082;38.772;2023-05-16T14:16:43;8.63;;;4.10;;
71947;SDS011;63257;55.082;38.772;2023-05-16T14:19:13;19.02;;;4.72;;
71947;SDS011;63257;55.082;38.772;2023-05-16T14:21:39;7.65;;;4.70;;
71947;SDS011;63257;55.082;38.772;2023-05-16T14:24:05;9.83;;;4.33;;
71947;SDS011;63257;55.082;38.772;2023-05-16T14:26:31;6.25;;;4.10;;
71947;SDS011;63257;55.082;38.772;2023-05-16T14:28:57;7.63;;;4.47;;
71947;SDS011;63257;55.082;38.772;2023-05-16T14:31:23;11.07;;;5.00;;
71947;SDS011;63257;55.082;38.772;2023-05-16T14:33:49;10.20;;;5.10;;
71947;SDS011;63257;55.082;38.772;2023-05-16T14:36:15;8.10;;;4.53;;
71947;SDS011;63257;55.082;38.772;2023-05-16T14:38:41;7.57;;;3.97;;
71947;SDS011;63257;55.082;38.772;2023-05-16T14:41:07;17.10;;;5.30;;
71947;SDS011;63257;55.082;38.772;2023-05-16T14:43:33;9.77;;;5.83;;
71947;SDS011;63257;55.082;38.772;2023-05-16T14:45:59;6.30;;;4.80;;
71947;SDS011;63257;55.082;38.772;2023-05-16T14:48:25;9.98;;;5.15;;
71947;SDS011;63257;55.082;38.772;2023-05-16T14:50:51;5.72;;;4.78;;
71947;SDS011;63257;55.082;38.772;2023-05-16T14:53:17;6.57;;;4.70;;
71947;SDS011;63257;55.082;38.772;2023-05-16T14:55:43;6.90;;;4.10;;
71947;SDS011;63257;55.082;38.772;2023-05-16T14:58:09;12.13;;;5.10;;
71947;SDS011;63257;55.082;38.772;2023-05-16T15:00:36;10.60;;;4.78;;
71947;SDS011;63257;55.082;38.772;2023-05-16T15:03:01;7.87;;;4.60;;
71947;SDS011;63257;55.082;38.772;2023-05-16T15:09:45;6.85;;;4.93;;
71947;SDS011;63257;55.082;38.772;2023-05-16T15:12:11;10.43;;;4.43;;
71947;SDS011;63257;55.082;38.772;2023-05-16T15:14:37;12.43;;;4.60;;
71947;SDS011;63257;55.082;38.772;2023-05-16T15:17:03;10.07;;;4.70;;
71947;SDS011;63257;55.082;38.772;2023-05-16T15:19:29;7.83;;;4.73;;
71947;SDS011;63257;55.082;38.772;2023-05-16T15:21:55;11.27;;;5.20;;
71947;SDS011;63257;55.082;38.772;2023-05-16T15:24:21;9.50;;;5.23;;
71947;SDS011;63257;55.082;38.772;2023-05-16T15:26:46;11.37;;;5.63;;